sensor_id;sensor_type;location;lat;lon;timestamp;temperature;humidity
19342;DHT22;9807;48.258;12.690;2023-05-29T00:00:59;18.60;99.90
19342;DHT22;9807;48.258;12.690;2023-05-29T00:03:25;18.60;99.90
19342;DHT22;9807;48.258;12.690;2023-05-29T00:05:51;18.70;99.90
19342;DHT22;9807;48.258;12.690;2023-05-29T00:08:18;18.60;99.90
19342;DHT22;9807;48.258;12.690;2023-05-29T00:10:44;18.60;99.90
19342;DHT22;9807;48.258;12.690;2023-05-29T00:13:10;18.60;99.90
19342;DHT22;9807;48.258;12.690;2023-05-29T00:15:36;18.50;99.90
19342;DHT22;9807;48.258;12.690;2023-05-29T00:18:02;18.50;99.90
19342;DHT22;9807;48.258;12.690;2023-05-29T00:20:27;18.50;99.90
19342;DHT22;9807;48.258;12.690;2023-05-29T00:22:53;18.50;99.90
19342;DHT22;9807;48.258;12.690;2023-05-29T00:25:19;18.50;99.90
19342;DHT22;9807;48.258;12.690;2023-05-29T00:27:45;18.50;99.90
19342;DHT22;9807;48.258;12.690;2023-05-29T00:30:11;18.40;99.90
19342;DHT22;9807;48.258;12.690;2023-05-29T00:32:37;18.40;99.90
19342;DHT22;9807;48.258;12.690;2023-05-29T00:35:02;18.40;99.90
19342;DHT22;9807;48.258;12.690;2023-05-29T00:37:28;18.40;99.90
19342;DHT22;9807;48.258;12.690;2023-05-29T00:39:54;18.40;99.90
19342;DHT22;9807;48.258;12.690;2023-05-29T00:42:20;18.30;99.90
19342;DHT22;9807;48.258;12.690;2023-05-29T00:44:46;18.30;99.90
19342;DHT22;9807;48.258;12.690;2023-05-29T00:47:11;18.30;99.90
19342;DHT22;9807;48.258;12.690;2023-05-29T00:49:37;18.20;99.90
19342;DHT22;9807;48.258;12.690;2023-05-29T00:52:05;18.20;99.90
19342;DHT22;9807;48.258;12.690;2023-05-29T00:54:33;18.10;99.90
19342;DHT22;9807;48.258;12.690;2023-05-29T00:56:59;18.00;99.90
19342;DHT22;9807;48.258;12.690;2023-05-29T00:59:32;17.90;99.90
19342;DHT22;9807;48.258;12.690;2023-05-29T01:01:59;17.70;99.90
19342;DHT22;9807;48.258;12.690;2023-05-29T01:04:26;17.60;99.90
19342;DHT22;9807;48.258;12.690;2023-05-29T01:06:52;17.60;99.90
19342;DHT22;9807;48.258;12.690;2023-05-29T01:09:18;17.70;99.90
19342;DHT22;9807;48.258;12.690;2023-05-29T01:12:19;17.60;99.90
19342;DHT22;9807;48.258;12.690;2023-05-29T01:20:40;17.70;99.90
19342;DHT22;9807;48.258;12.690;2023-05-29T01:28:33;17.80;99.90
19342;DHT22;9807;48.258;12.690;2023-05-29T01:31:01;17.70;99.90
19342;DHT22;9807;48.258;12.690;2023-05-29T01:33:28;17.80;99.90
19342;DHT22;9807;48.258;12.690;2023-05-29T01:35:53;17.80;99.90
19342;DHT22;9807;48.258;12.690;2023-05-29T01:38:19;17.80;99.90
19342;DHT22;9807;48.258;12.690;2023-05-29T01:40:45;17.80;99.90
19342;DHT22;9807;48.258;12.690;2023-05-29T01:43:12;17.70;99.90
19342;DHT22;9807;48.258;12.690;2023-05-29T01:45:39;17.70;99.90
19342;DHT22;9807;48.258;12.690;2023-05-29T01:48:06;17.70;99.90
19342;DHT22;9807;48.258;12.690;2023-05-29T01:50:32;17.70;99.90
19342;DHT22;9807;48.258;12.690;2023-05-29T01:52:58;17.70;99.90
19342;DHT22;9807;48.258;12.690;2023-05-29T01:55:23;17.60;99.90
19342;DHT22;9807;48.258;12.690;2023-05-29T01:57:50;17.60;99.90
19342;DHT22;9807;48.258;12.690;2023-05-29T02:00:17;17.60;99.90
19342;DHT22;9807;48.258;12.690;2023-05-29T02:02:44;17.40;99.90
19342;DHT22;9807;48.258;12.690;2023-05-29T02:05:10;17.10;99.90
19342;DHT22;9807;48.258;12.690;2023-05-29T02:07:36;17.10;99.90
19342;DHT22;9807;48.258;12.690;2023-05-29T02:10:05;17.00;99.90
19342;DHT22;9807;48.258;12.690;2023-05-29T02:12:31;16.90;99.90
19342;DHT22;9807;48.258;12.690;2023-05-29T02:14:57;16.90;99.90
19342;DHT22;9807;48.258;12.690;2023-05-29T02:17:23;17.00;99.90
19342;DHT22;9807;48.258;12.690;2023-05-29T02:19:51;17.00;99.90
19342;DHT22;9807;48.258;12.690;2023-05-29T02:22:18;16.90;99.90
19342;DHT22;9807;48.258;12.690;2023-05-29T02:24:43;16.90;99.90
19342;DHT22;9807;48.258;12.690;2023-05-29T02:27:09;16.90;99.90
19342;DHT22;9807;48.258;12.690;2023-05-29T02:29:35;16.70;99.90
19342;DHT22;9807;48.258;12.690;2023-05-29T02:32:00;16.60;99.90
19342;DHT22;9807;48.258;12.690;2023-05-29T02:34:26;16.60;99.90
19342;DHT22;9807;48.258;12.690;2023-05-29T02:36:52;16.70;99.90
19342;DHT22;9807;48.258;12.690;2023-05-29T02:39:19;16.70;99.90
19342;DHT22;9807;48.258;12.690;2023-05-29T02:41:45;16.70;99.90
19342;DHT22;9807;48.258;12.690;2023-05-29T02:44:11;16.80;99.90
19342;DHT22;9807;48.258;12.690;2023-05-29T02:46:37;16.90;99.90
19342;DHT22;9807;48.258;12.690;2023-05-29T02:49:02;17.00;99.90
19342;DHT22;9807;48.258;12.690;2023-05-29T02:51:28;17.00;99.90
19342;DHT22;9807;48.258;12.690;2023-05-29T02:53:54;17.00;99.90
19342;DHT22;9807;48.258;12.690;2023-05-29T02:56:20;16.90;99.90
19342;DHT22;9807;48.258;12.690;2023-05-29T02:58:52;16.70;99.90
19342;DHT22;9807;48.258;12.690;2023-05-29T03:01:17;16.60;99.90
19342;DHT22;9807;48.258;12.690;2023-05-29T03:03:43;16.30;99.90
19342;DHT22;9807;48.258;12.690;2023-05-29T03:06:09;16.20;99.90
19342;DHT22;9807;48.258;12.690;2023-05-29T03:08:38;16.30;99.90
19342;DHT22;9807;48.258;12.690;2023-05-29T03:11:09;16.50;99.90
19342;DHT22;9807;48.258;12.690;2023-05-29T03:13:38;16.50;99.90
19342;DHT22;9807;48.258;12.690;2023-05-29T03:16:04;16.70;99.90
19342;DHT22;9807;48.258;12.690;2023-05-29T03:18:30;16.70;99.90
19342;DHT22;9807;48.258;12.690;2023-05-29T03:20:56;16.80;99.90
19342;DHT22;9807;48.258;12.690;2023-05-29T03:23:22;16.80;99.90
19342;DHT22;9807;48.258;12.690;2023-05-29T03:25:51;16.90;99.90
19342;DHT22;9807;48.258;12.690;2023-05-29T03:28:16;16.90;99.90
19342;DHT22;9807;48.258;12.690;2023-05-29T03:30:42;16.90;99.90
19342;DHT22;9807;48.258;12.690;2023-05-29T03:33:08;16.90;99.90
19342;DHT22;9807;48.258;12.690;2023-05-29T03:35:33;16.90;99.90
19342;DHT22;9807;48.258;12.690;2023-05-29T03:38:00;16.90;99.90
19342;DHT22;9807;48.258;12.690;2023-05-29T03:40:25;16.90;99.90
19342;DHT22;9807;48.258;12.690;2023-05-29T03:42:51;16.90;99.90
19342;DHT22;9807;48.258;12.690;2023-05-29T03:45:17;16.90;99.90
19342;DHT22;9807;48.258;12.690;2023-05-29T03:47:42;16.80;99.90
19342;DHT22;9807;48.258;12.690;2023-05-29T03:50:08;16.80;99.90
19342;DHT22;9807;48.258;12.690;2023-05-29T03:52:34;16.80;99.90
19342;DHT22;9807;48.258;12.690;2023-05-29T03:55:01;16.80;99.90
19342;DHT22;9807;48.258;12.690;2023-05-29T03:57:27;16.80;99.90
19342;DHT22;9807;48.258;12.690;2023-05-29T03:59:53;16.80;99.90
19342;DHT22;9807;48.258;12.690;2023-05-29T04:02:19;16.70;99.90
19342;DHT22;9807;48.258;12.690;2023-05-29T04:04:51;16.60;99.90
19342;DHT22;9807;48.258;12.690;2023-05-29T04:07:18;16.60;99.90
19342;DHT22;9807;48.258;12.690;2023-05-29T04:09:45;16.60;99.90
19342;DHT22;9807;48.258;12.690;2023-05-29T04:12:11;16.60;99.90
19342;DHT22;9807;48.258;12.690;2023-05-29T04:14:39;16.60;99.90
19342;DHT22;9807;48.258;12.690;2023-05-29T04:17:04;16.50;99.90
19342;DHT22;9807;48.258;12.690;2023-05-29T04:19:30;16.50;99.90
19342;DHT22;9807;48.258;12.690;2023-05-29T04:21:56;16.40;99.90
19342;DHT22;9807;48.258;12.690;2023-05-29T04:24:21;16.40;99.90
19342;DHT22;9807;48.258;12.690;2023-05-29T04:26:48;16.40;99.90
19342;DHT22;9807;48.258;12.690;2023-05-29T04:29:15;16.20;99.90
19342;DHT22;9807;48.258;12.690;2023-05-29T04:31:40;16.10;99.90
19342;DHT22;9807;48.258;12.690;2023-05-29T04:34:06;15.70;99.90
19342;DHT22;9807;48.258;12.690;2023-05-29T04:36:32;15.40;99.90
19342;DHT22;9807;48.258;12.690;2023-05-29T04:39:03;15.30;99.90
19342;DHT22;9807;48.258;12.690;2023-05-29T04:41:29;15.40;99.90
19342;DHT22;9807;48.258;12.690;2023-05-29T04:43:57;15.70;99.90
19342;DHT22;9807;48.258;12.690;2023-05-29T04:46:23;15.90;99.90
19342;DHT22;9807;48.258;12.690;2023-05-29T04:48:49;16.20;99.90
19342;DHT22;9807;48.258;12.690;2023-05-29T04:51:22;16.30;99.90
19342;DHT22;9807;48.258;12.690;2023-05-29T04:53:51;16.20;99.90
19342;DHT22;9807;48.258;12.690;2023-05-29T04:56:19;15.80;99.90
19342;DHT22;9807;48.258;12.690;2023-05-29T04:58:45;15.70;99.90
19342;DHT22;9807;48.258;12.690;2023-05-29T05:01:11;15.80;99.90
19342;DHT22;9807;48.258;12.690;2023-05-29T05:03:40;15.80;99.90
19342;DHT22;9807;48.258;12.690;2023-05-29T05:06:06;15.60;99.90
19342;DHT22;9807;48.258;12.690;2023-05-29T05:08:33;15.40;99.90
19342;DHT22;9807;48.258;12.690;2023-05-29T05:11:02;15.30;99.90
19342;DHT22;9807;48.258;12.690;2023-05-29T05:13:28;15.10;99.90
19342;DHT22;9807;48.258;12.690;2023-05-29T05:15:54;15.00;99.90
19342;DHT22;9807;48.258;12.690;2023-05-29T05:18:20;15.20;99.90
19342;DHT22;9807;48.258;12.690;2023-05-29T05:20:45;15.20;99.90
19342;DHT22;9807;48.258;12.690;2023-05-29T05:23:12;15.10;99.90
19342;DHT22;9807;48.258;12.690;2023-05-29T05:25:38;15.10;99.90
19342;DHT22;9807;48.258;12.690;2023-05-29T05:28:04;14.90;99.90
19342;DHT22;9807;48.258;12.690;2023-05-29T05:30:31;14.70;99.90
19342;DHT22;9807;48.258;12.690;2023-05-29T05:32:57;14.40;99.90
19342;DHT22;9807;48.258;12.690;2023-05-29T05:35:23;14.40;99.90
19342;DHT22;9807;48.258;12.690;2023-05-29T05:37:49;14.50;99.90
19342;DHT22;9807;48.258;12.690;2023-05-29T05:40:15;14.60;99.90
19342;DHT22;9807;48.258;12.690;2023-05-29T05:42:41;14.90;99.90
19342;DHT22;9807;48.258;12.690;2023-05-29T05:45:07;15.00;99.90
19342;DHT22;9807;48.258;12.690;2023-05-29T05:47:33;15.30;99.90
19342;DHT22;9807;48.258;12.690;2023-05-29T05:49:59;15.40;99.90
19342;DHT22;9807;48.258;12.690;2023-05-29T05:52:25;15.50;99.90
19342;DHT22;9807;48.258;12.690;2023-05-29T05:54:56;15.60;99.90
19342;DHT22;9807;48.258;12.690;2023-05-29T05:57:22;16.00;99.90
19342;DHT22;9807;48.258;12.690;2023-05-29T05:59:49;16.40;99.90
19342;DHT22;9807;48.258;12.690;2023-05-29T06:02:14;16.90;99.90
19342;DHT22;9807;48.258;12.690;2023-05-29T06:04:40;17.60;99.90
19342;DHT22;9807;48.258;12.690;2023-05-29T06:07:07;18.20;99.90
19342;DHT22;9807;48.258;12.690;2023-05-29T06:09:32;18.60;99.90
19342;DHT22;9807;48.258;12.690;2023-05-29T06:11:58;19.00;99.90
19342;DHT22;9807;48.258;12.690;2023-05-29T06:14:24;19.30;99.90
19342;DHT22;9807;48.258;12.690;2023-05-29T06:16:51;19.70;99.90
19342;DHT22;9807;48.258;12.690;2023-05-29T06:19:16;20.10;99.90
19342;DHT22;9807;48.258;12.690;2023-05-29T06:21:42;20.40;99.90
19342;DHT22;9807;48.258;12.690;2023-05-29T06:24:08;20.70;99.90
19342;DHT22;9807;48.258;12.690;2023-05-29T06:26:34;21.00;99.90
19342;DHT22;9807;48.258;12.690;2023-05-29T06:28:59;21.40;99.90
19342;DHT22;9807;48.258;12.690;2023-05-29T06:31:25;21.60;99.90
19342;DHT22;9807;48.258;12.690;2023-05-29T06:33:51;21.90;99.90
19342;DHT22;9807;48.258;12.690;2023-05-29T06:36:17;22.10;99.90
19342;DHT22;9807;48.258;12.690;2023-05-29T06:38:50;22.40;99.90
19342;DHT22;9807;48.258;12.690;2023-05-29T06:41:16;22.40;99.90
19342;DHT22;9807;48.258;12.690;2023-05-29T06:43:42;22.50;99.90
19342;DHT22;9807;48.258;12.690;2023-05-29T06:46:07;22.60;99.90
19342;DHT22;9807;48.258;12.690;2023-05-29T06:48:34;22.00;99.90
19342;DHT22;9807;48.258;12.690;2023-05-29T06:51:03;21.60;99.90
19342;DHT22;9807;48.258;12.690;2023-05-29T06:53:41;21.60;99.90
19342;DHT22;9807;48.258;12.690;2023-05-29T06:56:07;22.20;99.90
19342;DHT22;9807;48.258;12.690;2023-05-29T06:58:33;22.90;99.90
19342;DHT22;9807;48.258;12.690;2023-05-29T07:00:59;23.30;99.90
19342;DHT22;9807;48.258;12.690;2023-05-29T07:03:26;23.80;99.90
19342;DHT22;9807;48.258;12.690;2023-05-29T07:05:52;24.00;99.90
19342;DHT22;9807;48.258;12.690;2023-05-29T07:08:18;24.40;99.90
19342;DHT22;9807;48.258;12.690;2023-05-29T07:10:44;24.80;99.90
19342;DHT22;9807;48.258;12.690;2023-05-29T07:13:10;25.10;99.90
19342;DHT22;9807;48.258;12.690;2023-05-29T07:15:37;25.30;99.90
19342;DHT22;9807;48.258;12.690;2023-05-29T07:18:03;25.50;99.90
19342;DHT22;9807;48.258;12.690;2023-05-29T07:20:29;25.80;99.90
19342;DHT22;9807;48.258;12.690;2023-05-29T07:22:55;26.00;99.90
19342;DHT22;9807;48.258;12.690;2023-05-29T07:25:21;25.40;99.90
19342;DHT22;9807;48.258;12.690;2023-05-29T07:27:46;25.30;99.90
19342;DHT22;9807;48.258;12.690;2023-05-29T07:30:13;25.60;99.90
19342;DHT22;9807;48.258;12.690;2023-05-29T07:32:39;25.30;99.90
19342;DHT22;9807;48.258;12.690;2023-05-29T07:35:05;24.80;99.90
19342;DHT22;9807;48.258;12.690;2023-05-29T07:37:31;24.60;99.90
19342;DHT22;9807;48.258;12.690;2023-05-29T07:39:57;25.10;99.90
19342;DHT22;9807;48.258;12.690;2023-05-29T07:42:23;25.60;99.90
19342;DHT22;9807;48.258;12.690;2023-05-29T07:44:49;26.30;99.90
19342;DHT22;9807;48.258;12.690;2023-05-29T07:47:14;26.20;99.90
19342;DHT22;9807;48.258;12.690;2023-05-29T07:49:40;26.40;99.90
19342;DHT22;9807;48.258;12.690;2023-05-29T07:52:06;26.80;99.90
19342;DHT22;9807;48.258;12.690;2023-05-29T07:54:32;27.30;99.90
19342;DHT22;9807;48.258;12.690;2023-05-29T07:56:59;27.70;99.90
19342;DHT22;9807;48.258;12.690;2023-05-29T07:59:25;28.00;99.90
19342;DHT22;9807;48.258;12.690;2023-05-29T08:01:51;28.30;99.90
19342;DHT22;9807;48.258;12.690;2023-05-29T08:04:17;28.50;99.90
19342;DHT22;9807;48.258;12.690;2023-05-29T08:06:43;28.70;99.90
19342;DHT22;9807;48.258;12.690;2023-05-29T08:09:09;28.80;99.90
19342;DHT22;9807;48.258;12.690;2023-05-29T08:11:36;28.90;99.90
19342;DHT22;9807;48.258;12.690;2023-05-29T08:14:02;29.20;99.90
19342;DHT22;9807;48.258;12.690;2023-05-29T08:16:28;29.40;99.90
19342;DHT22;9807;48.258;12.690;2023-05-29T08:18:54;29.60;99.90
19342;DHT22;9807;48.258;12.690;2023-05-29T08:21:20;29.70;99.90
19342;DHT22;9807;48.258;12.690;2023-05-29T08:23:46;29.70;99.90
19342;DHT22;9807;48.258;12.690;2023-05-29T08:26:12;29.90;99.90
19342;DHT22;9807;48.258;12.690;2023-05-29T08:28:39;30.10;99.90
19342;DHT22;9807;48.258;12.690;2023-05-29T08:31:04;30.20;99.90
19342;DHT22;9807;48.258;12.690;2023-05-29T08:33:30;30.30;99.90
19342;DHT22;9807;48.258;12.690;2023-05-29T08:35:58;30.40;99.90
19342;DHT22;9807;48.258;12.690;2023-05-29T08:38:24;30.50;99.90
19342;DHT22;9807;48.258;12.690;2023-05-29T08:40:54;30.70;99.90
19342;DHT22;9807;48.258;12.690;2023-05-29T08:43:22;30.80;99.90
19342;DHT22;9807;48.258;12.690;2023-05-29T08:45:53;30.90;99.90
19342;DHT22;9807;48.258;12.690;2023-05-29T08:48:22;30.70;99.90
19342;DHT22;9807;48.258;12.690;2023-05-29T08:50:49;31.00;99.90
19342;DHT22;9807;48.258;12.690;2023-05-29T08:53:18;31.00;99.90
19342;DHT22;9807;48.258;12.690;2023-05-29T08:55:45;30.80;99.90
19342;DHT22;9807;48.258;12.690;2023-05-29T08:58:13;30.20;99.90
19342;DHT22;9807;48.258;12.690;2023-05-29T09:00:40;30.30;99.90
19342;DHT22;9807;48.258;12.690;2023-05-29T09:03:07;30.50;99.90
19342;DHT22;9807;48.258;12.690;2023-05-29T09:05:33;30.70;99.90
19342;DHT22;9807;48.258;12.690;2023-05-29T09:07:59;30.90;99.90
19342;DHT22;9807;48.258;12.690;2023-05-29T09:10:25;30.90;99.90
19342;DHT22;9807;48.258;12.690;2023-05-29T09:12:53;30.80;99.90
19342;DHT22;9807;48.258;12.690;2023-05-29T09:15:23;30.20;99.90
19342;DHT22;9807;48.258;12.690;2023-05-29T09:17:56;30.30;99.90
19342;DHT22;9807;48.258;12.690;2023-05-29T09:20:23;30.40;99.90
19342;DHT22;9807;48.258;12.690;2023-05-29T09:22:54;30.30;99.90
19342;DHT22;9807;48.258;12.690;2023-05-29T09:25:28;30.30;99.90
19342;DHT22;9807;48.258;12.690;2023-05-29T09:28:05;29.80;99.90
19342;DHT22;9807;48.258;12.690;2023-05-29T09:33:06;29.60;99.90
19342;DHT22;9807;48.258;12.690;2023-05-29T09:35:43;29.60;99.90
19342;DHT22;9807;48.258;12.690;2023-05-29T09:38:10;29.60;99.90
19342;DHT22;9807;48.258;12.690;2023-05-29T09:40:38;29.60;99.90
19342;DHT22;9807;48.258;12.690;2023-05-29T09:45:42;29.70;99.90
19342;DHT22;9807;48.258;12.690;2023-05-29T09:48:13;29.60;99.90
19342;DHT22;9807;48.258;12.690;2023-05-29T09:50:39;29.50;99.90
19342;DHT22;9807;48.258;12.690;2023-05-29T09:53:25;29.30;99.90
19342;DHT22;9807;48.258;12.690;2023-05-29T09:55:52;28.90;99.90
19342;DHT22;9807;48.258;12.690;2023-05-29T09:58:23;29.00;99.90
19342;DHT22;9807;48.258;12.690;2023-05-29T10:00:50;28.80;99.90
19342;DHT22;9807;48.258;12.690;2023-05-29T10:03:17;28.80;99.90
19342;DHT22;9807;48.258;12.690;2023-05-29T10:05:47;28.80;99.90
19342;DHT22;9807;48.258;12.690;2023-05-29T10:08:15;28.80;99.90
19342;DHT22;9807;48.258;12.690;2023-05-29T10:10:48;28.70;99.90
19342;DHT22;9807;48.258;12.690;2023-05-29T10:13:15;28.30;99.90
19342;DHT22;9807;48.258;12.690;2023-05-29T10:15:45;27.70;99.90
19342;DHT22;9807;48.258;12.690;2023-05-29T10:18:32;27.40;99.90
19342;DHT22;9807;48.258;12.690;2023-05-29T10:21:01;27.00;99.90
19342;DHT22;9807;48.258;12.690;2023-05-29T10:23:29;27.10;99.90
19342;DHT22;9807;48.258;12.690;2023-05-29T10:26:01;27.30;99.90
19342;DHT22;9807;48.258;12.690;2023-05-29T10:28:30;26.70;99.90
19342;DHT22;9807;48.258;12.690;2023-05-29T10:31:13;26.60;99.90
19342;DHT22;9807;48.258;12.690;2023-05-29T10:33:55;26.80;99.90
19342;DHT22;9807;48.258;12.690;2023-05-29T10:36:26;27.00;99.90
19342;DHT22;9807;48.258;12.690;2023-05-29T10:38:53;27.20;99.90
19342;DHT22;9807;48.258;12.690;2023-05-29T10:43:58;27.40;99.90
19342;DHT22;9807;48.258;12.690;2023-05-29T10:49:23;27.20;99.90
19342;DHT22;9807;48.258;12.690;2023-05-29T10:51:50;27.20;99.90
19342;DHT22;9807;48.258;12.690;2023-05-29T10:54:19;27.10;99.90
19342;DHT22;9807;48.258;12.690;2023-05-29T10:56:52;27.10;99.90
19342;DHT22;9807;48.258;12.690;2023-05-29T10:59:18;27.10;99.90
19342;DHT22;9807;48.258;12.690;2023-05-29T11:01:44;27.00;99.90
19342;DHT22;9807;48.258;12.690;2023-05-29T11:04:30;26.90;99.90
19342;DHT22;9807;48.258;12.690;2023-05-29T11:06:58;26.90;99.90
19342;DHT22;9807;48.258;12.690;2023-05-29T11:09:33;26.80;99.90
19342;DHT22;9807;48.258;12.690;2023-05-29T11:12:21;26.90;99.90
19342;DHT22;9807;48.258;12.690;2023-05-29T11:14:56;26.90;99.90
19342;DHT22;9807;48.258;12.690;2023-05-29T11:20:08;26.70;99.90
19342;DHT22;9807;48.258;12.690;2023-05-29T11:22:56;26.40;99.90
19342;DHT22;9807;48.258;12.690;2023-05-29T11:25:26;26.30;99.90
19342;DHT22;9807;48.258;12.690;2023-05-29T11:27:52;25.90;99.90
19342;DHT22;9807;48.258;12.690;2023-05-29T11:30:19;26.00;99.90
19342;DHT22;9807;48.258;12.690;2023-05-29T11:32:45;25.50;99.90
19342;DHT22;9807;48.258;12.690;2023-05-29T11:35:13;25.60;99.90
19342;DHT22;9807;48.258;12.690;2023-05-29T11:37:42;25.60;99.90
19342;DHT22;9807;48.258;12.690;2023-05-29T11:40:14;25.60;99.90
19342;DHT22;9807;48.258;12.690;2023-05-29T11:42:45;25.70;99.90
19342;DHT22;9807;48.258;12.690;2023-05-29T11:45:19;25.90;99.90
19342;DHT22;9807;48.258;12.690;2023-05-29T11:47:55;25.50;99.90
19342;DHT22;9807;48.258;12.690;2023-05-29T11:50:29;25.80;99.90
19342;DHT22;9807;48.258;12.690;2023-05-29T11:52:57;25.90;99.90
19342;DHT22;9807;48.258;12.690;2023-05-29T11:55:23;26.10;99.90
19342;DHT22;9807;48.258;12.690;2023-05-29T11:57:50;25.90;99.90
19342;DHT22;9807;48.258;12.690;2023-05-29T12:00:18;25.20;99.90
19342;DHT22;9807;48.258;12.690;2023-05-29T12:02:44;24.80;99.90
19342;DHT22;9807;48.258;12.690;2023-05-29T12:05:16;25.00;99.90
19342;DHT22;9807;48.258;12.690;2023-05-29T12:07:53;25.20;99.90
19342;DHT22;9807;48.258;12.690;2023-05-29T12:10:21;25.30;99.90
19342;DHT22;9807;48.258;12.690;2023-05-29T12:12:51;25.10;99.90
19342;DHT22;9807;48.258;12.690;2023-05-29T12:15:17;25.30;99.90
19342;DHT22;9807;48.258;12.690;2023-05-29T12:17:44;25.50;99.90
19342;DHT22;9807;48.258;12.690;2023-05-29T12:20:11;25.70;99.90
19342;DHT22;9807;48.258;12.690;2023-05-29T12:22:38;25.90;99.90
19342;DHT22;9807;48.258;12.690;2023-05-29T12:25:10;25.90;99.90
19342;DHT22;9807;48.258;12.690;2023-05-29T12:27:39;25.90;99.90
19342;DHT22;9807;48.258;12.690;2023-05-29T12:32:41;25.90;99.90
19342;DHT22;9807;48.258;12.690;2023-05-29T12:35:15;25.90;99.90
19342;DHT22;9807;48.258;12.690;2023-05-29T12:37:49;25.80;99.90
19342;DHT22;9807;48.258;12.690;2023-05-29T12:40:25;25.90;99.90
19342;DHT22;9807;48.258;12.690;2023-05-29T12:43:09;26.00;99.90
19342;DHT22;9807;48.258;12.690;2023-05-29T12:45:35;26.20;99.90
19342;DHT22;9807;48.258;12.690;2023-05-29T12:48:04;26.20;99.90
19342;DHT22;9807;48.258;12.690;2023-05-29T12:50:49;26.30;99.90
19342;DHT22;9807;48.258;12.690;2023-05-29T12:53:15;26.30;99.90
19342;DHT22;9807;48.258;12.690;2023-05-29T12:55:42;26.30;99.90
19342;DHT22;9807;48.258;12.690;2023-05-29T12:58:10;26.40;99.90
19342;DHT22;9807;48.258;12.690;2023-05-29T13:00:37;26.60;99.90
19342;DHT22;9807;48.258;12.690;2023-05-29T13:03:07;26.50;99.90
19342;DHT22;9807;48.258;12.690;2023-05-29T13:05:34;26.20;99.90
19342;DHT22;9807;48.258;12.690;2023-05-29T13:08:00;26.30;99.90
19342;DHT22;9807;48.258;12.690;2023-05-29T13:10:27;26.00;99.90
19342;DHT22;9807;48.258;12.690;2023-05-29T13:12:54;26.10;99.90
19342;DHT22;9807;48.258;12.690;2023-05-29T13:15:21;26.20;99.90
19342;DHT22;9807;48.258;12.690;2023-05-29T13:17:48;26.30;99.90
19342;DHT22;9807;48.258;12.690;2023-05-29T13:20:14;26.00;99.90
19342;DHT22;9807;48.258;12.690;2023-05-29T13:22:41;26.10;99.90
19342;DHT22;9807;48.258;12.690;2023-05-29T13:25:09;26.20;99.90
19342;DHT22;9807;48.258;12.690;2023-05-29T13:27:39;26.30;99.90
19342;DHT22;9807;48.258;12.690;2023-05-29T13:30:06;26.50;99.90
19342;DHT22;9807;48.258;12.690;2023-05-29T13:32:32;26.50;99.90
19342;DHT22;9807;48.258;12.690;2023-05-29T13:34:58;26.50;99.90
19342;DHT22;9807;48.258;12.690;2023-05-29T13:37:24;26.70;99.90
19342;DHT22;9807;48.258;12.690;2023-05-29T13:39:50;26.90;99.90
19342;DHT22;9807;48.258;12.690;2023-05-29T13:42:18;26.90;99.90
19342;DHT22;9807;48.258;12.690;2023-05-29T13:44:44;26.80;99.90
19342;DHT22;9807;48.258;12.690;2023-05-29T13:47:10;26.80;99.90
19342;DHT22;9807;48.258;12.690;2023-05-29T13:49:35;26.70;99.90
19342;DHT22;9807;48.258;12.690;2023-05-29T13:52:02;26.70;99.90
19342;DHT22;9807;48.258;12.690;2023-05-29T13:54:28;26.20;99.90
19342;DHT22;9807;48.258;12.690;2023-05-29T13:56:57;26.20;99.90
19342;DHT22;9807;48.258;12.690;2023-05-29T13:59:24;25.90;99.90
19342;DHT22;9807;48.258;12.690;2023-05-29T14:01:50;25.70;99.90
19342;DHT22;9807;48.258;12.690;2023-05-29T14:04:16;25.70;99.90
19342;DHT22;9807;48.258;12.690;2023-05-29T14:06:41;25.90;99.90
19342;DHT22;9807;48.258;12.690;2023-05-29T14:09:07;26.10;99.90
19342;DHT22;9807;48.258;12.690;2023-05-29T14:11:36;26.30;99.90
19342;DHT22;9807;48.258;12.690;2023-05-29T14:14:03;26.40;99.90
19342;DHT22;9807;48.258;12.690;2023-05-29T14:16:29;26.20;99.90
19342;DHT22;9807;48.258;12.690;2023-05-29T14:18:55;26.10;99.90
19342;DHT22;9807;48.258;12.690;2023-05-29T14:21:21;26.20;99.90
19342;DHT22;9807;48.258;12.690;2023-05-29T14:23:48;26.30;99.90
19342;DHT22;9807;48.258;12.690;2023-05-29T14:26:14;26.40;99.90
19342;DHT22;9807;48.258;12.690;2023-05-29T14:28:39;26.50;99.90
19342;DHT22;9807;48.258;12.690;2023-05-29T14:31:05;26.50;99.90
19342;DHT22;9807;48.258;12.690;2023-05-29T14:33:32;26.50;99.90
19342;DHT22;9807;48.258;12.690;2023-05-29T14:35:57;26.60;99.90
19342;DHT22;9807;48.258;12.690;2023-05-29T14:38:23;26.60;99.90
19342;DHT22;9807;48.258;12.690;2023-05-29T14:40:49;26.60;99.90
19342;DHT22;9807;48.258;12.690;2023-05-29T14:43:15;26.70;99.90
19342;DHT22;9807;48.258;12.690;2023-05-29T14:45:40;26.60;99.90
19342;DHT22;9807;48.258;12.690;2023-05-29T14:48:06;26.60;99.90
19342;DHT22;9807;48.258;12.690;2023-05-29T14:50:32;26.50;99.90
19342;DHT22;9807;48.258;12.690;2023-05-29T14:52:58;26.40;99.90
19342;DHT22;9807;48.258;12.690;2023-05-29T14:55:24;26.40;99.90
19342;DHT22;9807;48.258;12.690;2023-05-29T14:57:50;26.50;99.90
19342;DHT22;9807;48.258;12.690;2023-05-29T15:00:16;26.60;99.90
19342;DHT22;9807;48.258;12.690;2023-05-29T15:02:42;26.70;99.90
19342;DHT22;9807;48.258;12.690;2023-05-29T15:05:08;26.60;99.90
19342;DHT22;9807;48.258;12.690;2023-05-29T15:07:33;26.60;99.90
19342;DHT22;9807;48.258;12.690;2023-05-29T15:10:00;26.60;99.90
19342;DHT22;9807;48.258;12.690;2023-05-29T15:12:26;26.60;99.90
19342;DHT22;9807;48.258;12.690;2023-05-29T15:14:52;26.70;99.90
19342;DHT22;9807;48.258;12.690;2023-05-29T15:17:18;26.80;99.90
19342;DHT22;9807;48.258;12.690;2023-05-29T15:19:43;26.90;99.90
19342;DHT22;9807;48.258;12.690;2023-05-29T15:22:09;27.10;99.90
19342;DHT22;9807;48.258;12.690;2023-05-29T15:24:35;27.20;99.90
19342;DHT22;9807;48.258;12.690;2023-05-29T15:27:01;27.20;99.90
19342;DHT22;9807;48.258;12.690;2023-05-29T15:29:33;27.00;99.90
19342;DHT22;9807;48.258;12.690;2023-05-29T15:32:00;26.90;99.90
19342;DHT22;9807;48.258;12.690;2023-05-29T15:34:26;27.00;99.90
19342;DHT22;9807;48.258;12.690;2023-05-29T15:36:53;27.10;99.90
19342;DHT22;9807;48.258;12.690;2023-05-29T15:39:19;27.10;99.90
19342;DHT22;9807;48.258;12.690;2023-05-29T15:41:44;26.90;99.90
19342;DHT22;9807;48.258;12.690;2023-05-29T15:44:10;27.00;99.90
19342;DHT22;9807;48.258;12.690;2023-05-29T15:46:36;27.20;99.90
19342;DHT22;9807;48.258;12.690;2023-05-29T15:49:01;27.20;99.90
19342;DHT22;9807;48.258;12.690;2023-05-29T15:51:27;27.30;99.90
19342;DHT22;9807;48.258;12.690;2023-05-29T15:53:54;27.30;99.90
19342;DHT22;9807;48.258;12.690;2023-05-29T15:56:20;27.30;99.90
19342;DHT22;9807;48.258;12.690;2023-05-29T15:58:52;27.40;99.90